Time;durP1;ratioP1;P1;durP2;ratioP2;P2;SDS_P1;SDS_P2;PMS_P1;PMS_P2;Temp;Humidity;BMP_temperature;BMP_pressure;BME280_temperature;BME280_humidity;BME280_pressure;Samples;Min_cycle;Max_cycle;Signal;HPM_P1;HPM_P2
2022/03/09 00:02:39;;;;;;;0.75;0.75;;;;;;;18.11;17.95;102131.81;10489650;28;20094;-77
2022/03/09 00:07:41;;;;;;;0.00;0.00;;;;;;;18.66;17.26;102130.78;10488815;28;20040;-77
2022/03/09 00:12:43;;;;;;;0.00;0.00;;;;;;;18.26;17.79;102131.16;10513389;28;20127;-76
2022/03/09 00:17:45;;;;;;;0.20;0.20;;;;;;;16.84;18.98;102144.38;10496916;28;20562;-77
2022/03/09 00:22:46;;;;;;;0.00;0.00;;;;;;;17.58;18.65;102146.59;10496946;28;20075;-77
2022/03/09 00:27:49;;;;;;;0.00;0.00;;;;;;;17.03;18.77;102148.25;10495668;28;20127;-77
2022/03/09 00:32:50;;;;;;;0.10;0.10;;;;;;;17.63;18.40;102149.28;10497060;28;20123;-77
2022/03/09 00:37:53;;;;;;;0.30;0.28;;;;;;;15.80;20.06;102161.16;10491941;28;20059;-77
2022/03/09 00:42:55;;;;;;;0.20;0.20;;;;;;;16.64;19.05;102152.66;10484526;28;20127;-77
2022/03/09 00:47:57;;;;;;;1.60;1.20;;;;;;;16.28;19.36;102158.81;10498970;28;20064;-76
2022/03/09 00:53:00;;;;;;;0.10;0.10;;;;;;;17.37;18.71;102154.94;10475372;28;20052;-77
2022/03/09 00:58:01;;;;;;;1.10;1.02;;;;;;;16.77;19.31;102162.47;10507462;28;20120;-77
2022/03/09 01:03:03;;;;;;;1.35;0.60;;;;;;;16.05;19.67;102156.56;10492671;28;20056;-77
2022/03/09 01:08:05;;;;;;;3.28;0.98;;;;;;;15.68;20.13;102155.63;10472946;28;20510;-78
2022/03/09 01:13:08;;;;;;;0.10;0.10;;;;;;;17.15;18.81;102134.56;10494846;28;20051;-77
2022/03/09 01:18:10;;;;;;;0.32;0.22;;;;;;;16.10;19.82;102134.16;10488763;28;20090;-77
2022/03/09 01:23:11;;;;;;;1.15;0.57;;;;;;;15.98;19.95;102139.06;10489153;28;20438;-77
2022/03/09 01:28:14;;;;;;;2.75;1.27;;;;;;;16.30;19.42;102137.22;10484785;28;20491;-77
2022/03/09 01:33:16;;;;;;;3.20;2.05;;;;;;;15.15;20.74;102133.53;10485632;28;20083;-78
2022/03/09 01:38:17;;;;;;;2.80;1.17;;;;;;;16.71;19.06;102133.72;10476053;28;20056;-76
2022/03/09 01:43:19;;;;;;;3.50;1.95;;;;;;;16.41;19.21;102129.66;10483014;28;20044;-77
2022/03/09 01:48:21;;;;;;;1.33;1.02;;;;;;;15.98;20.20;102131.25;10488887;28;20052;-77
2022/03/09 01:53:22;;;;;;;1.35;0.98;;;;;;;16.39;19.35;102125.22;10500125;28;20040;-77
2022/03/09 01:58:24;;;;;;;0.63;0.40;;;;;;;17.02;18.94;102126.53;10492634;28;20055;-77
2022/03/09 02:03:25;;;;;;;0.43;0.43;;;;;;;17.23;18.54;102127.78;10526642;28;20148;-77
2022/03/09 02:13:50;;;;;;;0.00;0.00;;;;;;;18.28;17.63;102115.53;10476351;28;20519;-76
2022/03/09 02:18:51;;;;;;;2.40;2.30;;;;;;;17.39;18.39;102118.50;10488556;28;20115;-76
2022/03/09 02:23:55;;;;;;;0.45;0.45;;;;;;;16.86;19.24;102104.50;10508868;28;20127;-77
2022/03/09 02:28:57;;;;;;;0.00;0.00;;;;;;;16.68;18.97;102107.63;10493225;28;20183;-76
2022/03/09 02:33:59;;;;;;;0.00;0.00;;;;;;;16.60;19.16;102098.78;10496934;28;20041;-77
2022/03/09 02:39:00;;;;;;;0.85;0.85;;;;;;;17.20;18.87;102097.34;10501862;28;20086;-77
2022/03/09 02:44:03;;;;;;;0.00;0.00;;;;;;;17.35;18.74;102095.88;10498708;28;20136;-77
2022/03/09 02:49:04;;;;;;;0.77;0.70;;;;;;;17.23;18.69;102096.53;10500304;28;20047;-78
2022/03/09 02:54:06;;;;;;;0.00;0.00;;;;;;;16.77;19.24;102107.81;10503880;28;20040;-77
2022/03/09 02:59:09;;;;;;;0.00;0.00;;;;;;;17.82;18.12;102102.69;10499877;28;20039;-77
2022/03/09 03:04:11;;;;;;;0.00;0.00;;;;;;;16.86;19.05;102111.44;10499995;28;20071;-77
2022/03/09 03:09:13;;;;;;;0.00;0.00;;;;;;;17.62;18.58;102105.84;10490091;28;20095;-77
2022/03/09 03:14:15;;;;;;;0.00;0.00;;;;;;;17.84;17.99;102098.34;10488124;28;20040;-77
2022/03/09 03:19:16;;;;;;;0.00;0.00;;;;;;;17.24;18.45;102098.25;10513554;28;20075;-76
2022/03/09 03:24:18;;;;;;;0.40;0.40;;;;;;;17.11;19.02;102092.84;10499174;28;20063;-77
2022/03/09 03:29:20;;;;;;;0.00;0.00;;;;;;;15.79;20.00;102091.84;10500737;28;20041;-77
2022/03/09 03:34:24;;;;;;;0.10;0.10;;;;;;;16.77;19.10;102101.72;10496611;28;20476;-77
2022/03/09 03:39:27;;;;;;;0.00;0.00;;;;;;;17.39;18.70;102098.53;10498734;28;20048;-77
2022/03/09 03:44:28;;;;;;;0.00;0.00;;;;;;;16.01;20.00;102100.16;10475743;28;20434;-77
2022/03/09 03:49:31;;;;;;;0.00;0.00;;;;;;;17.15;19.01;102109.41;10491399;28;20398;-77
2022/03/09 03:54:35;;;;;;;0.00;0.00;;;;;;;17.11;18.65;102110.22;10475860;28;20048;-77
2022/03/09 03:59:36;;;;;;;0.00;0.00;;;;;;;16.03;19.70;102111.47;10485162;28;20040;-77
2022/03/09 04:04:38;;;;;;;0.05;0.05;;;;;;;16.08;20.22;102119.38;10497739;28;20040;-78
2022/03/09 04:09:39;;;;;;;0.00;0.00;;;;;;;15.85;20.22;102118.00;10481722;28;20131;-77
2022/03/09 04:14:41;;;;;;;0.00;0.00;;;;;;;15.94;20.10;102126.84;10513559;28;20045;-77
2022/03/09 04:19:44;;;;;;;0.00;0.00;;;;;;;16.78;19.01;102114.78;10479986;28;20051;-77
2022/03/09 04:24:46;;;;;;;0.00;0.00;;;;;;;16.38;20.32;102124.38;10521808;28;20071;-76
2022/03/09 04:29:47;;;;;;;0.08;0.08;;;;;;;15.96;20.25;102117.38;10497554;28;20115;-76
2022/03/09 04:34:49;;;;;;;0.00;0.00;;;;;;;15.82;21.14;102117.88;10496116;28;20127;-77
2022/03/09 04:39:50;;;;;;;0.00;0.00;;;;;;;16.04;20.17;102123.63;10497370;28;20115;-77
2022/03/09 04:44:53;;;;;;;0.00;0.00;;;;;;;16.00;20.39;102121.78;10493072;28;20135;-78
2022/03/09 04:49:56;;;;;;;0.00;0.00;;;;;;;16.39;20.15;102126.13;10497420;28;20028;-77
2022/03/09 04:54:57;;;;;;;0.00;0.00;;;;;;;16.13;20.28;102126.41;10492422;28;20709;-76
2022/03/09 04:59:59;;;;;;;0.28;0.28;;;;;;;16.36;19.59;102130.38;10496341;28;20034;-77
2022/03/09 05:05:05;;;;;;;0.00;0.00;;;;;;;16.65;19.54;102123.16;10487675;28;20052;-77
2022/03/09 05:10:08;;;;;;;0.08;0.08;;;;;;;16.14;20.42;102122.97;10495072;28;20036;-76
2022/03/09 05:15:10;;;;;;;0.00;0.00;;;;;;;15.35;22.15;102125.41;10511928;28;20044;-76
2022/03/09 05:20:16;;;;;;;0.00;0.00;;;;;;;14.93;22.31;102137.25;10494610;28;20048;-77
2022/03/09 05:25:19;;;;;;;0.00;0.00;;;;;;;15.23;22.09;102137.19;10512087;28;20099;-77
2022/03/09 05:30:23;;;;;;;1.20;1.10;;;;;;;15.75;20.98;102136.75;10512343;28;20543;-77
2022/03/09 05:35:25;;;;;;;0.00;0.00;;;;;;;15.38;22.43;102136.75;10496042;28;20044;-77
2022/03/09 05:40:26;;;;;;;0.00;0.00;;;;;;;15.72;21.81;102141.91;10489530;28;20036;-81
2022/03/09 05:45:28;;;;;;;0.00;0.00;;;;;;;15.10;22.40;102140.31;10491127;28;20045;-81
2022/03/09 05:50:30;;;;;;;0.00;0.00;;;;;;;14.91;22.30;102138.94;10491405;28;20132;-81
2022/03/09 05:55:36;;;;;;;0.00;0.00;;;;;;;14.57;22.99;102151.78;10489433;28;20067;-81
2022/03/09 06:00:38;;;;;;;0.05;0.05;;;;;;;14.36;22.66;102153.75;10489639;28;20131;-80
2022/03/09 06:05:39;;;;;;;0.10;0.10;;;;;;;15.03;21.87;102153.97;10490356;28;20058;-80
2022/03/09 06:10:41;;;;;;;0.00;0.00;;;;;;;15.01;21.79;102166.00;10495101;28;20480;-80
2022/03/09 06:15:44;;;;;;;0.00;0.00;;;;;;;14.75;21.77;102163.56;10498869;28;20032;-80
2022/03/09 06:20:46;;;;;;;0.47;0.47;;;;;;;15.57;21.14;102163.16;10497718;28;20054;-80
2022/03/09 06:25:48;;;;;;;0.00;0.00;;;;;;;15.04;21.53;102160.91;10498488;28;20040;-80
2022/03/09 06:30:50;;;;;;;0.00;0.00;;;;;;;15.33;21.49;102159.13;10497864;28;20311;-79
2022/03/09 06:35:51;;;;;;;0.00;0.00;;;;;;;15.72;22.43;102162.69;10497830;28;20076;-80
2022/03/09 06:40:53;;;;;;;0.00;0.00;;;;;;;15.94;21.31;102163.22;10495750;28;20056;-80
2022/03/09 06:45:55;;;;;;;0.10;0.10;;;;;;;15.90;21.85;102164.03;10495847;28;20036;-80
2022/03/09 06:50:59;;;;;;;0.00;0.00;;;;;;;17.02;21.54;102173.38;10526831;28;20047;-80
2022/03/09 06:56:01;;;;;;;0.00;0.00;;;;;;;17.06;21.24;102175.22;10495311;28;20079;-80
2022/03/09 07:01:03;;;;;;;0.00;0.00;;;;;;;16.90;20.37;102176.59;10497008;28;20056;-81
2022/03/09 07:06:05;;;;;;;0.00;0.00;;;;;;;16.02;20.98;102179.91;10497799;28;20483;-81
2022/03/09 07:11:10;;;;;;;0.57;0.57;;;;;;;17.47;21.61;102183.75;10496321;28;20519;-81
2022/03/09 07:16:12;;;;;;;0.00;0.00;;;;;;;18.21;21.74;102178.03;10491919;28;20048;-81
2022/03/09 07:21:14;;;;;;;0.00;0.00;;;;;;;18.96;19.62;102187.72;10481172;28;20045;-82
2022/03/09 07:26:16;;;;;;;0.00;0.00;;;;;;;19.40;18.50;102188.19;10495340;28;20140;-81
2022/03/09 07:31:18;;;;;;;3.50;2.00;;;;;;;18.47;18.92;102194.91;10485741;28;20582;-82
2022/03/09 07:36:20;;;;;;;0.08;0.08;;;;;;;18.48;19.04;102205.38;10471947;28;20044;-82
2022/03/09 07:41:23;;;;;;;0.00;0.00;;;;;;;19.16;18.69;102206.22;10489069;28;20124;-82
2022/03/09 07:46:25;;;;;;;1.95;1.33;;;;;;;18.82;19.66;102215.38;10491963;28;20056;-81
2022/03/09 07:51:26;;;;;;;0.20;0.20;;;;;;;19.09;19.47;102222.69;10493823;28;20139;-82
2022/03/09 07:56:28;;;;;;;0.20;0.20;;;;;;;18.41;19.54;102228.75;10491912;28;20048;-82
2022/03/09 08:01:29;;;;;;;0.10;0.10;;;;;;;17.70;20.11;102229.34;10489254;28;20457;-82
2022/03/09 08:06:32;;;;;;;3.95;3.63;;;;;;;18.08;19.84;102225.66;10491332;28;20048;-82
2022/03/09 08:11:35;;;;;;;0.43;0.43;;;;;;;20.50;18.94;102223.94;10490891;28;20087;-82
2022/03/09 08:16:38;;;;;;;0.05;0.05;;;;;;;19.88;18.90;102228.72;10491039;28;20147;-82
2022/03/09 08:21:40;;;;;;;0.43;0.10;;;;;;;19.57;19.11;102240.63;10492140;28;20037;-82
2022/03/09 08:26:41;;;;;;;0.47;0.47;;;;;;;18.13;20.13;102244.00;10475100;28;20044;-82
2022/03/09 08:31:43;;;;;;;0.98;0.20;;;;;;;19.87;19.15;102242.66;10490646;28;20072;-82
2022/03/09 08:36:44;;;;;;;1.65;0.65;;;;;;;20.56;18.76;102239.66;10491544;28;20048;-82
2022/03/09 08:41:46;;;;;;;2.45;1.35;;;;;;;20.46;18.22;102237.84;10490276;28;20095;-82
2022/03/09 08:47:09;;;;;;;6.68;2.92;;;;;;;18.76;19.91;102238.78;10489841;28;20052;-81
2022/03/09 08:52:11;;;;;;;3.38;1.75;;;;;;;20.40;18.02;102233.44;10487998;28;20131;-81
2022/03/09 08:57:14;;;;;;;1.38;1.15;;;;;;;20.29;18.64;102238.63;10488251;28;20037;-82
2022/03/09 09:02:15;;;;;;;1.08;0.93;;;;;;;21.31;17.70;102224.28;10470261;28;20060;-82
2022/03/09 09:07:17;;;;;;;2.22;1.73;;;;;;;19.22;19.42;102226.34;10498962;28;20044;-82
2022/03/09 09:12:19;;;;;;;13.40;5.50;;;;;;;17.05;21.04;102243.75;10472058;28;20467;-81
2022/03/09 09:17:21;;;;;;;9.27;4.32;;;;;;;18.81;19.74;102240.63;10471694;28;20075;-82
2022/03/09 09:22:42;;;;;;;2.92;1.67;;;;;;;20.83;18.73;102231.97;10489772;28;20052;-82
2022/03/09 09:28:04;;;;;;;9.90;5.03;;;;;;;19.02;19.26;102233.94;10479067;28;20056;-83
2022/03/09 09:33:05;;;;;;;7.18;3.40;;;;;;;20.98;17.60;102220.66;10488023;28;20103;-82
2022/03/09 09:38:08;;;;;;;4.93;2.45;;;;;;;21.00;18.41;102225.03;10454876;28;20087;-83
2022/03/09 09:43:11;;;;;;;4.45;2.90;;;;;;;20.13;19.22;102228.94;10489017;28;20445;-83
2022/03/09 09:48:13;;;;;;;1.08;0.98;;;;;;;21.50;19.04;102223.41;10506827;28;20144;-83
2022/03/09 09:53:15;;;;;;;12.93;5.03;;;;;;;19.89;19.04;102229.59;10462621;28;20052;-82
2022/03/09 09:58:19;;;;;;;10.80;5.57;;;;;;;19.48;20.30;102220.50;10478886;28;20075;-83
2022/03/09 10:03:21;;;;;;;7.95;3.90;;;;;;;20.45;18.34;102217.78;10477849;28;20075;-83
2022/03/09 10:08:22;;;;;;;1.88;1.20;;;;;;;20.96;18.87;102207.56;10514395;28;20419;-82
2022/03/09 10:13:29;;;;;;;13.75;6.10;;;;;;;19.56;18.86;102224.06;10478249;28;20399;-83
2022/03/09 10:18:33;;;;;;;10.65;4.88;;;;;;;20.53;18.69;102202.13;10462271;28;20055;-82
2022/03/09 10:23:50;;;;;;;1.67;0.88;;;;;;;22.26;16.84;102202.44;10486004;28;20458;-83
2022/03/09 10:29:00;;;;;;;9.32;4.35;;;;;;;21.58;17.57;102204.22;10505991;28;20071;-83
2022/03/09 10:34:12;;;;;;;;;;;;;;;21.94;16.97;102199.84;10520210;28;20078;-82
2022/03/09 10:39:16;;;;;;;4.32;2.42;;;;;;;23.09;17.83;102195.09;10518541;28;19927;-83
2022/03/09 10:44:17;;;;;;;13.13;5.88;;;;;;;21.92;16.45;102197.22;10518939;28;20044;-80
2022/03/09 10:49:24;;;;;;;7.70;4.45;;;;;;;21.58;17.29;102201.59;10503417;28;20126;-80
2022/03/09 10:54:28;;;;;;;4.57;2.83;;;;;;;25.37;14.74;102184.84;10518058;28;20135;-80
2022/03/09 10:59:49;;;;;;;5.57;2.35;;;;;;;23.61;16.88;102196.53;10536532;28;20066;-80
2022/03/09 11:05:12;;;;;;;8.85;4.72;;;;;;;22.38;18.00;102191.00;10518687;28;20055;-79
2022/03/09 11:10:15;;;;;;;10.82;6.07;;;;;;;22.02;17.45;102198.97;10528384;28;20043;-80
2022/03/09 11:15:19;;;;;;;15.32;7.05;;;;;;;21.78;18.17;102212.97;10519811;28;20125;-80
2022/03/09 11:20:21;;;;;;;7.78;3.33;;;;;;;22.47;17.25;102191.00;10502698;28;20056;-79
2022/03/09 11:25:24;;;;;;;1.60;1.10;;;;;;;24.20;15.65;102182.84;10518170;28;20465;-79
2022/03/09 11:30:30;;;;;;;6.43;3.03;;;;;;;23.66;15.74;102186.84;10518127;28;20060;-79
2022/03/09 11:35:34;;;;;;;10.40;5.87;;;;;;;22.72;17.83;102180.44;10518046;28;20058;-80
2022/03/09 11:40:36;;;;;;;11.45;6.28;;;;;;;22.93;16.06;102179.44;10536114;28;20134;-79
2022/03/09 11:45:38;;;;;;;9.63;4.88;;;;;;;24.66;15.47;102157.72;10536234;28;20101;-79
2022/03/09 11:50:46;;;;;;;11.23;6.97;;;;;;;24.75;13.77;102152.34;10518486;28;20435;-79
2022/03/09 11:55:47;;;;;;;11.27;7.00;;;;;;;21.98;16.01;102155.25;10536679;28;20109;-79
2022/03/09 12:01:00;;;;;;;11.30;5.68;;;;;;;23.56;15.11;102153.63;10516607;28;20044;-80
2022/03/09 12:06:02;;;;;;;13.63;5.45;;;;;;;23.24;14.97;102157.38;10515776;28;20043;-79
2022/03/09 12:11:04;;;;;;;11.63;5.97;;;;;;;22.70;16.20;102149.78;10516130;28;20449;-84
2022/03/09 12:16:23;;;;;;;8.20;3.08;;;;;;;25.08;14.75;102154.53;10534741;28;20444;-83
2022/03/09 12:21:25;;;;;;;9.25;3.92;;;;;;;24.77;15.69;102144.41;10532240;28;20044;-84
2022/03/09 12:26:44;;;;;;;5.13;1.55;;;;;;;25.69;12.77;102133.34;10515712;28;20079;-84
2022/03/09 12:31:46;;;;;;;7.50;3.58;;;;;;;24.89;13.75;102136.38;10501105;28;20075;-82
2022/03/09 12:36:49;;;;;;;7.38;4.55;;;;;;;24.71;15.10;102126.97;10514774;28;20098;-81
2022/03/09 12:41:56;;;;;;;0.70;0.70;;;;;;;27.34;13.04;102126.34;10514850;28;20130;-84
2022/03/09 12:47:03;;;;;;;1.00;0.38;;;;;;;26.21;14.44;102129.72;10533383;28;20142;-83
2022/03/09 12:52:11;;;;;;;11.43;5.72;;;;;;;23.54;15.31;102131.72;10519873;28;20449;-82
2022/03/09 12:57:25;;;;;;;9.70;0.98;;;;;;;25.72;13.78;102128.88;10515118;28;20044;-82
2022/03/09 13:02:48;;;;;;;0.60;0.55;;;;;;;27.66;12.45;102116.72;10512304;28;20056;-82
2022/03/09 13:07:57;;;;;;;4.28;2.90;;;;;;;25.72;14.91;102115.69;10532250;28;20056;-83
2022/03/09 13:13:03;;;;;;;13.05;5.78;;;;;;;23.96;14.47;102119.06;10516337;28;20081;-83
2022/03/09 13:18:06;;;;;;;2.20;1.08;;;;;;;25.25;13.12;102112.94;10536478;28;20052;-82
2022/03/09 13:23:30;;;;;;;4.90;2.53;;;;;;;25.40;13.18;102108.34;10515014;28;20055;-82
2022/03/09 13:28:31;;;;;;;10.93;5.25;;;;;;;23.60;14.71;102119.38;10533423;28;20040;-79
2022/03/09 13:33:33;;;;;;;0.15;0.13;;;;;;;25.43;14.56;102116.22;10514769;28;20127;-79
2022/03/09 13:38:35;;;;;;;7.70;3.95;;;;;;;24.84;13.40;102110.06;10532826;28;20048;-80
2022/03/09 13:43:37;;;;;;;11.52;3.08;;;;;;;24.98;13.00;102101.94;10531063;28;20043;-78
2022/03/09 13:48:39;;;;;;;2.95;0.55;;;;;;;26.36;11.99;102093.31;10533017;28;20044;-78
2022/03/09 13:53:42;;;;;;;6.03;3.65;;;;;;;25.89;12.17;102090.72;10532711;28;20042;-78
2022/03/09 13:58:44;;;;;;;11.38;5.85;;;;;;;24.33;13.68;102097.56;10505218;28;20090;-80
2022/03/09 14:03:47;;;;;;;6.38;2.72;;;;;;;24.93;13.50;102100.28;10531293;28;20302;-80
2022/03/09 14:08:52;;;;;;;8.77;4.72;;;;;;;24.33;14.36;102088.78;10513795;28;20044;-80
2022/03/09 14:14:24;;;;;;;6.85;4.38;;;;;;;26.00;11.98;102085.25;10514525;28;20098;-79
2022/03/09 14:19:25;;;;;;;10.32;5.93;;;;;;;24.04;14.85;102083.00;10489872;28;20131;-79
2022/03/09 14:24:29;;;;;;;4.88;3.63;;;;;;;25.39;14.60;102083.75;10531196;28;20495;-80
2022/03/09 14:29:31;;;;;;;6.00;4.32;;;;;;;25.40;14.15;102087.25;10519747;28;20123;-80
2022/03/09 14:34:33;;;;;;;11.02;5.10;;;;;;;23.22;15.39;102081.16;10520998;28;20144;-80
2022/03/09 14:39:35;;;;;;;16.58;7.97;;;;;;;23.67;15.29;102075.47;10521242;28;20422;-80
2022/03/09 14:44:38;;;;;;;34.63;20.30;;;;;;;24.80;13.02;102076.72;10521049;28;20422;-80
2022/03/09 14:49:39;;;;;;;9.93;3.88;;;;;;;24.01;15.83;102083.03;10504515;28;20075;-80
2022/03/09 14:54:41;;;;;;;0.43;0.43;;;;;;;25.94;12.26;102066.00;10521155;28;20139;-80
2022/03/09 14:59:43;;;;;;;3.13;1.13;;;;;;;26.58;12.00;102073.44;10503936;28;20052;-80
2022/03/09 15:04:44;;;;;;;15.63;7.80;;;;;;;22.47;16.71;102078.09;10520429;28;20044;-80
2022/03/09 15:09:46;;;;;;;18.67;8.15;;;;;;;22.87;15.17;102078.75;10519764;28;20574;-80
2022/03/09 15:14:47;;;;;;;14.88;5.32;;;;;;;24.53;14.82;102070.09;10519998;28;20051;-79
2022/03/09 15:19:49;;;;;;;15.98;8.00;;;;;;;23.52;15.96;102075.63;10519993;28;20108;-80
2022/03/09 15:24:50;;;;;;;8.35;4.28;;;;;;;23.12;16.36;102080.31;10537354;28;20126;-80
2022/03/09 15:29:52;;;;;;;10.63;4.93;;;;;;;23.44;14.45;102087.09;10537710;28;20059;-80
2022/03/09 15:34:54;;;;;;;9.13;4.47;;;;;;;23.81;15.24;102085.84;10519541;28;20039;-80
2022/03/09 15:39:57;;;;;;;14.13;6.05;;;;;;;24.17;15.26;102088.97;10520362;28;20054;-80
2022/03/09 15:44:59;;;;;;;1.73;1.40;;;;;;;25.26;15.07;102077.78;10514684;28;20079;-79
2022/03/09 15:50:02;;;;;;;6.25;2.92;;;;;;;24.48;14.66;102078.06;10507695;28;20456;-79
2022/03/09 15:55:04;;;;;;;8.80;3.83;;;;;;;22.74;15.11;102086.72;10510505;28;20090;-78
2022/03/09 16:00:09;;;;;;;0.00;0.00;;;;;;;26.49;14.98;102073.66;10504370;28;20041;-78
2022/03/09 16:05:16;;;;;;;13.77;5.88;;;;;;;24.90;14.93;102084.50;10508039;28;20130;-79
2022/03/09 16:10:20;;;;;;;2.53;1.30;;;;;;;25.90;14.87;102079.28;10529182;28;20057;-79
2022/03/09 16:15:27;;;;;;;1.35;1.33;;;;;;;26.20;14.70;102077.81;10537152;28;20036;-79
2022/03/09 16:20:30;;;;;;;3.20;3.00;;;;;;;26.42;14.02;102083.50;10537140;28;20043;-79
2022/03/09 16:25:41;;;;;;;5.93;1.85;;;;;;;28.57;13.09;102074.38;10539433;28;20055;-79
2022/03/09 16:30:43;;;;;;;0.03;0.03;;;;;;;26.97;14.53;102084.94;10509631;28;20119;-79
2022/03/09 16:35:45;;;;;;;0.00;0.00;;;;;;;26.01;16.02;102076.41;10535889;28;20139;-79
2022/03/09 16:41:21;;;;;;;4.35;2.80;;;;;;;24.89;15.80;102082.75;10536637;28;20575;-78
2022/03/09 16:46:22;;;;;;;1.02;0.93;;;;;;;25.07;15.49;102082.47;10520167;28;20070;-79
2022/03/09 16:51:24;;;;;;;4.55;2.33;;;;;;;24.59;16.43;102090.19;10501770;28;20036;-79
2022/03/09 16:56:27;;;;;;;0.00;0.00;;;;;;;28.20;12.60;102079.91;10513574;28;20114;-78
2022/03/09 17:01:29;;;;;;;0.80;0.80;;;;;;;28.24;12.27;102087.72;10520924;28;20135;-79
2022/03/09 17:06:31;;;;;;;0.00;0.00;;;;;;;27.84;12.38;102084.44;10517780;28;20044;-78
2022/03/09 17:11:33;;;;;;;0.00;0.00;;;;;;;27.65;12.73;102088.50;10515059;28;20052;-79
2022/03/09 17:16:34;;;;;;;0.57;0.20;;;;;;;26.97;15.02;102100.78;10514202;28;20052;-78
2022/03/09 17:21:36;;;;;;;0.00;0.00;;;;;;;25.97;14.42;102096.75;10513257;28;20453;-78
2022/03/09 17:26:39;;;;;;;0.00;0.00;;;;;;;25.87;14.70;102106.63;10542478;28;20515;-78
2022/03/09 17:31:42;;;;;;;0.00;0.00;;;;;;;25.76;13.97;102109.47;10546547;28;20048;-78
2022/03/09 17:36:45;;;;;;;4.13;2.55;;;;;;;24.78;14.63;102118.06;10523027;28;20356;-78
2022/03/09 17:41:47;;;;;;;0.00;0.00;;;;;;;24.34;15.19;102128.25;10535799;28;20510;-78
2022/03/09 17:46:48;;;;;;;0.00;0.00;;;;;;;25.75;14.04;102138.50;10510909;28;20050;-78
2022/03/09 17:51:50;;;;;;;0.70;0.70;;;;;;;23.67;15.75;102164.91;10520095;28;20558;-78
2022/03/09 17:56:54;;;;;;;0.00;0.00;;;;;;;24.85;14.04;102156.63;10513989;28;20036;-78
2022/03/09 18:01:56;;;;;;;0.00;0.00;;;;;;;24.91;15.12;102153.00;10514434;28;20044;-78
2022/03/09 18:06:58;;;;;;;0.00;0.00;;;;;;;24.51;14.71;102150.91;10528282;28;20048;-78
2022/03/09 18:12:02;;;;;;;0.00;0.00;;;;;;;25.44;13.63;102166.31;10524011;28;20040;-78
2022/03/09 18:17:04;;;;;;;0.10;0.10;;;;;;;25.50;13.11;102170.63;10524194;28;20109;-78
2022/03/09 18:22:08;;;;;;;0.00;0.00;;;;;;;25.25;13.30;102160.41;10522814;28;20072;-78
2022/03/09 18:27:11;;;;;;;0.00;0.00;;;;;;;24.40;14.70;102169.47;10524113;28;20095;-78
2022/03/09 18:32:12;;;;;;;0.47;0.47;;;;;;;21.74;18.73;102171.88;10522322;28;20498;-78
2022/03/09 18:37:14;;;;;;;0.52;0.52;;;;;;;21.67;18.36;102172.75;10524764;28;20163;-77
2022/03/09 18:42:15;;;;;;;0.05;0.05;;;;;;;21.89;17.99;102168.41;10540216;28;20054;-78
2022/03/09 18:47:39;;;;;;;0.25;0.25;;;;;;;21.60;18.24;102158.78;10521032;28;20414;-77
2022/03/09 18:52:40;;;;;;;0.00;0.00;;;;;;;22.23;17.24;102164.81;10522059;28;20032;-77
2022/03/09 18:57:44;;;;;;;0.00;0.00;;;;;;;22.99;16.84;102173.25;10522305;28;20082;-77
2022/03/09 19:02:46;;;;;;;0.00;0.00;;;;;;;22.17;17.84;102177.06;10538920;28;20040;-77
2022/03/09 19:07:47;;;;;;;0.00;0.00;;;;;;;21.95;18.31;102172.72;10539942;28;20036;-77
2022/03/09 19:12:49;;;;;;;0.10;0.10;;;;;;;21.06;18.60;102183.16;10539496;28;20051;-77
2022/03/09 19:17:51;;;;;;;0.00;0.00;;;;;;;21.55;18.13;102181.47;10520674;28;20067;-77
2022/03/09 19:22:52;;;;;;;0.00;0.00;;;;;;;20.74;18.60;102175.19;10539352;28;20118;-77
2022/03/09 19:27:54;;;;;;;0.00;0.00;;;;;;;20.81;19.25;102176.09;10539329;28;20044;-78
2022/03/09 19:32:56;;;;;;;0.00;0.00;;;;;;;21.35;18.64;102165.72;10537214;28;20048;-77
2022/03/09 19:37:57;;;;;;;0.00;0.00;;;;;;;21.22;18.77;102173.56;10520879;28;20076;-77
2022/03/09 19:42:59;;;;;;;0.20;0.20;;;;;;;20.43;19.50;102180.28;10537857;28;20113;-78
2022/03/09 19:48:00;;;;;;;0.00;0.00;;;;;;;21.43;17.79;102173.59;10522267;28;20047;-77
2022/03/09 19:53:02;;;;;;;0.00;0.00;;;;;;;20.26;20.38;102185.38;10540015;28;20048;-77
2022/03/09 19:58:04;;;;;;;0.00;0.00;;;;;;;19.56;21.42;102205.75;10522087;28;20406;-77
2022/03/09 20:03:07;;;;;;;0.00;0.00;;;;;;;19.33;21.40;102209.03;10540506;28;20093;-77
2022/03/09 20:08:12;;;;;;;0.00;0.00;;;;;;;19.30;21.05;102224.69;10539029;28;20479;-77
2022/03/09 20:13:13;;;;;;;0.00;0.00;;;;;;;19.05;22.00;102222.66;10521199;28;20131;-77
2022/03/09 20:18:16;;;;;;;0.00;0.00;;;;;;;18.00;24.16;102222.91;10520999;28;20135;-77
2022/03/09 20:23:17;;;;;;;1.65;1.55;;;;;;;18.90;22.31;102234.63;10539034;28;20558;-77
2022/03/09 20:28:21;;;;;;;0.00;0.00;;;;;;;18.74;22.44;102230.06;10522172;28;20423;-76
2022/03/09 20:33:23;;;;;;;0.57;0.57;;;;;;;18.58;22.07;102232.47;10538832;28;20040;-77
2022/03/09 20:38:25;;;;;;;0.10;0.10;;;;;;;18.64;22.60;102234.28;10520835;28;20071;-76
2022/03/09 20:43:26;;;;;;;0.00;0.00;;;;;;;18.91;22.17;102225.94;10520869;28;20693;-76
2022/03/09 20:48:30;;;;;;;2.00;0.63;;;;;;;17.48;23.48;102242.81;10521577;28;20051;-77
2022/03/09 20:53:32;;;;;;;0.22;0.20;;;;;;;16.98;23.44;102236.66;10521458;28;20127;-76
2022/03/09 20:58:34;;;;;;;0.20;0.20;;;;;;;18.53;22.08;102234.13;10520358;28;20119;-76
2022/03/09 21:03:36;;;;;;;0.10;0.10;;;;;;;17.66;22.12;102242.28;10521077;28;20147;-76
2022/03/09 21:08:40;;;;;;;0.08;0.08;;;;;;;18.01;21.48;102245.53;10520778;28;20040;-76
2022/03/09 21:13:55;;;;;;;0.00;0.00;;;;;;;18.83;20.73;102238.91;10520133;28;20130;-78
2022/03/09 21:18:59;;;;;;;1.00;0.75;;;;;;;18.57;21.18;102246.41;10520272;28;20071;-78
2022/03/09 21:24:01;;;;;;;0.00;0.00;;;;;;;18.44;21.88;102239.22;10531584;28;20040;-77
2022/03/09 21:29:03;;;;;;;0.00;0.00;;;;;;;18.08;21.61;102247.38;10527755;28;20056;-77
2022/03/09 21:34:04;;;;;;;0.00;0.00;;;;;;;18.83;20.79;102248.47;10520389;28;20131;-77
2022/03/09 21:39:08;;;;;;;0.00;0.00;;;;;;;18.77;21.01;102248.38;10507851;28;20071;-77
2022/03/09 21:44:09;;;;;;;0.00;0.00;;;;;;;19.10;20.57;102247.09;10536893;28;20101;-77
2022/03/09 21:49:14;;;;;;;0.10;0.10;;;;;;;18.73;21.06;102249.22;10520158;28;20040;-77
2022/03/09 21:54:18;;;;;;;0.00;0.00;;;;;;;19.02;20.40;102244.38;10520263;28;20040;-76
2022/03/09 21:59:20;;;;;;;0.00;0.00;;;;;;;18.55;21.25;102233.31;10520208;28;20048;-77
2022/03/09 22:04:22;;;;;;;0.73;0.73;;;;;;;17.29;22.21;102240.75;10537644;28;20127;-77
2022/03/09 22:09:24;;;;;;;0.00;0.00;;;;;;;17.76;22.99;102252.91;10535833;28;20483;-77
2022/03/09 22:14:27;;;;;;;0.00;0.00;;;;;;;17.32;22.65;102252.09;10519059;28;20131;-77
2022/03/09 22:19:29;;;;;;;0.00;0.00;;;;;;;18.05;22.38;102255.19;10526346;28;20040;-77
2022/03/09 22:24:30;;;;;;;0.00;0.00;;;;;;;17.99;22.72;102262.00;10518698;28;20127;-78
2022/03/09 22:29:32;;;;;;;0.00;0.00;;;;;;;17.28;23.47;102269.38;10525764;28;20055;-77
2022/03/09 22:34:36;;;;;;;0.00;0.00;;;;;;;15.86;26.04;102280.88;10509984;28;20499;-77
2022/03/09 22:39:38;;;;;;;0.20;0.20;;;;;;;14.51;27.63;102283.00;10531264;28;20122;-78
2022/03/09 22:44:39;;;;;;;0.00;0.00;;;;;;;15.02;28.05;102271.59;10514402;28;20131;-77
2022/03/09 22:49:41;;;;;;;0.00;0.00;;;;;;;15.35;26.23;102276.00;10501115;28;20185;-77
2022/03/09 22:54:43;;;;;;;0.00;0.00;;;;;;;16.62;24.22;102264.50;10553004;28;20046;-78
2022/03/09 22:59:44;;;;;;;0.00;0.00;;;;;;;16.17;24.81;102286.84;10523926;28;20491;-78
2022/03/09 23:10:11;;;;;;;0.00;0.00;;;;;;;17.09;23.70;102284.63;10528386;28;20045;-77
2022/03/09 23:15:12;;;;;;;0.00;0.00;;;;;;;18.38;20.75;102281.78;10536696;28;20163;-78
2022/03/09 23:20:14;;;;;;;0.00;0.00;;;;;;;18.52;21.11;102292.41;10532138;28;20072;-78
2022/03/09 23:25:17;;;;;;;4.90;1.55;;;;;;;17.63;22.47;102284.81;10520089;28;20044;-78